sensor_id;sensor_type;location;lat;lon;timestamp;temperature;humidity
52471;DHT22;38382;53.160;7.026;2023-03-11T00:00:44;-0.10;99.90
52471;DHT22;38382;53.160;7.026;2023-03-11T00:03:13;-0.10;99.90
52471;DHT22;38382;53.160;7.026;2023-03-11T00:05:42;-0.10;99.90
52471;DHT22;38382;53.160;7.026;2023-03-11T00:08:11;0.00;99.90
52471;DHT22;38382;53.160;7.026;2023-03-11T00:10:42;0.10;99.90
52471;DHT22;38382;53.160;7.026;2023-03-11T00:13:10;0.10;99.90
52471;DHT22;38382;53.160;7.026;2023-03-11T00:15:37;0.80;99.90
52471;DHT22;38382;53.160;7.026;2023-03-11T00:18:04;0.20;99.90
52471;DHT22;38382;53.160;7.026;2023-03-11T00:20:32;0.20;99.90
52471;DHT22;38382;53.160;7.026;2023-03-11T00:22:58;1.80;99.90
52471;DHT22;38382;53.160;7.026;2023-03-11T00:25:26;0.20;99.90
52471;DHT22;38382;53.160;7.026;2023-03-11T00:27:53;0.50;99.90
52471;DHT22;38382;53.160;7.026;2023-03-11T00:30:19;0.30;99.90
52471;DHT22;38382;53.160;7.026;2023-03-11T00:32:50;0.30;99.90
52471;DHT22;38382;53.160;7.026;2023-03-11T00:35:19;1.90;99.90
52471;DHT22;38382;53.160;7.026;2023-03-11T00:37:46;1.10;99.90
52471;DHT22;38382;53.160;7.026;2023-03-11T00:40:14;0.40;99.90
52471;DHT22;38382;53.160;7.026;2023-03-11T00:42:40;0.30;99.90
52471;DHT22;38382;53.160;7.026;2023-03-11T00:45:06;1.30;99.90
52471;DHT22;38382;53.160;7.026;2023-03-11T00:47:32;0.20;99.90
52471;DHT22;38382;53.160;7.026;2023-03-11T00:49:58;1.60;99.90
52471;DHT22;38382;53.160;7.026;2023-03-11T00:52:24;1.50;99.90
52471;DHT22;38382;53.160;7.026;2023-03-11T00:54:49;1.20;99.90
52471;DHT22;38382;53.160;7.026;2023-03-11T00:57:15;0.00;99.90
52471;DHT22;38382;53.160;7.026;2023-03-11T00:59:41;0.00;99.90
52471;DHT22;38382;53.160;7.026;2023-03-11T01:02:07;1.10;99.90
52471;DHT22;38382;53.160;7.026;2023-03-11T01:04:33;-0.10;99.90
52471;DHT22;38382;53.160;7.026;2023-03-11T01:06:58;1.50;99.90
52471;DHT22;38382;53.160;7.026;2023-03-11T01:09:24;0.00;99.90
52471;DHT22;38382;53.160;7.026;2023-03-11T01:11:50;0.10;99.90
52471;DHT22;38382;53.160;7.026;2023-03-11T01:14:16;0.20;99.90
52471;DHT22;38382;53.160;7.026;2023-03-11T01:16:42;0.60;99.90
52471;DHT22;38382;53.160;7.026;2023-03-11T01:19:08;0.80;99.90
52471;DHT22;38382;53.160;7.026;2023-03-11T01:21:34;0.20;99.90
52471;DHT22;38382;53.160;7.026;2023-03-11T01:23:59;0.10;99.90
52471;DHT22;38382;53.160;7.026;2023-03-11T01:26:25;-0.20;99.90
52471;DHT22;38382;53.160;7.026;2023-03-11T01:28:51;1.10;99.90
52471;DHT22;38382;53.160;7.026;2023-03-11T01:31:17;-0.20;99.90
52471;DHT22;38382;53.160;7.026;2023-03-11T01:33:42;-0.10;99.90
52471;DHT22;38382;53.160;7.026;2023-03-11T01:36:08;-0.10;99.90
52471;DHT22;38382;53.160;7.026;2023-03-11T01:38:34;0.40;99.90
52471;DHT22;38382;53.160;7.026;2023-03-11T01:41:00;1.20;99.90
52471;DHT22;38382;53.160;7.026;2023-03-11T01:48:39;1.00;99.90
52471;DHT22;38382;53.160;7.026;2023-03-11T01:51:07;1.40;99.90
52471;DHT22;38382;53.160;7.026;2023-03-11T01:53:33;0.10;99.90
52471;DHT22;38382;53.160;7.026;2023-03-11T01:56:01;0.20;99.90
52471;DHT22;38382;53.160;7.026;2023-03-11T01:58:31;0.50;99.90
52471;DHT22;38382;53.160;7.026;2023-03-11T02:00:59;0.90;99.90
52471;DHT22;38382;53.160;7.026;2023-03-11T02:03:30;0.10;99.90
52471;DHT22;38382;53.160;7.026;2023-03-11T02:05:58;0.10;99.90
52471;DHT22;38382;53.160;7.026;2023-03-11T02:08:24;1.40;99.90
52471;DHT22;38382;53.160;7.026;2023-03-11T02:10:51;0.10;99.90
52471;DHT22;38382;53.160;7.026;2023-03-11T02:13:17;0.70;99.90
52471;DHT22;38382;53.160;7.026;2023-03-11T02:15:44;0.00;99.90
52471;DHT22;38382;53.160;7.026;2023-03-11T02:18:11;-0.10;99.90
52471;DHT22;38382;53.160;7.026;2023-03-11T02:20:51;1.40;99.90
52471;DHT22;38382;53.160;7.026;2023-03-11T02:23:22;-0.20;99.90
52471;DHT22;38382;53.160;7.026;2023-03-11T02:26:10;-0.20;99.90
52471;DHT22;38382;53.160;7.026;2023-03-11T02:28:39;-0.20;99.90
52471;DHT22;38382;53.160;7.026;2023-03-11T02:31:06;-0.30;99.90
52471;DHT22;38382;53.160;7.026;2023-03-11T02:33:33;-0.30;99.90
52471;DHT22;38382;53.160;7.026;2023-03-11T02:36:00;-0.30;99.90
52471;DHT22;38382;53.160;7.026;2023-03-11T02:38:26;1.00;99.90
52471;DHT22;38382;53.160;7.026;2023-03-11T02:40:54;0.90;99.90
52471;DHT22;38382;53.160;7.026;2023-03-11T02:43:42;-0.30;99.90
52471;DHT22;38382;53.160;7.026;2023-03-11T02:46:10;-0.10;99.90
52471;DHT22;38382;53.160;7.026;2023-03-11T02:48:37;-0.40;99.90
52471;DHT22;38382;53.160;7.026;2023-03-11T02:51:04;-0.50;99.90
52471;DHT22;38382;53.160;7.026;2023-03-11T02:53:33;-0.50;99.90
52471;DHT22;38382;53.160;7.026;2023-03-11T02:56:00;-0.60;99.90
52471;DHT22;38382;53.160;7.026;2023-03-11T02:58:26;-0.10;99.90
52471;DHT22;38382;53.160;7.026;2023-03-11T03:00:51;0.50;99.90
52471;DHT22;38382;53.160;7.026;2023-03-11T03:03:17;-0.70;99.90
52471;DHT22;38382;53.160;7.026;2023-03-11T03:05:43;-0.70;99.90
52471;DHT22;38382;53.160;7.026;2023-03-11T03:08:08;-0.80;99.90
52471;DHT22;38382;53.160;7.026;2023-03-11T03:10:34;-0.90;99.90
52471;DHT22;38382;53.160;7.026;2023-03-11T03:13:00;-0.50;99.90
52471;DHT22;38382;53.160;7.026;2023-03-11T03:15:25;-1.00;99.90
52471;DHT22;38382;53.160;7.026;2023-03-11T03:17:51;-1.00;99.90
52471;DHT22;38382;53.160;7.026;2023-03-11T03:20:17;-1.00;99.90
52471;DHT22;38382;53.160;7.026;2023-03-11T03:22:43;-1.10;99.90
52471;DHT22;38382;53.160;7.026;2023-03-11T03:25:09;0.60;99.90
52471;DHT22;38382;53.160;7.026;2023-03-11T03:28:05;0.40;99.90
52471;DHT22;38382;53.160;7.026;2023-03-11T03:31:07;0.60;99.90
52471;DHT22;38382;53.160;7.026;2023-03-11T03:34:12;-1.00;99.90
52471;DHT22;38382;53.160;7.026;2023-03-11T03:36:51;-0.50;99.90
52471;DHT22;38382;53.160;7.026;2023-03-11T03:50:59;-0.10;99.90
52471;DHT22;38382;53.160;7.026;2023-03-11T04:30:16;-2.10;99.90
52471;DHT22;38382;53.160;7.026;2023-03-11T04:33:11;0.10;99.90
52471;DHT22;38382;53.160;7.026;2023-03-11T04:35:53;-0.10;99.90
52471;DHT22;38382;53.160;7.026;2023-03-11T04:38:40;-2.70;99.90
52471;DHT22;38382;53.160;7.026;2023-03-11T05:01:00;-0.60;99.90
52471;DHT22;38382;53.160;7.026;2023-03-11T05:03:26;-1.90;99.90
52471;DHT22;38382;53.160;7.026;2023-03-11T05:06:03;0.20;99.90
52471;DHT22;38382;53.160;7.026;2023-03-11T05:08:40;-1.60;99.90
52471;DHT22;38382;53.160;7.026;2023-03-11T05:11:22;-2.00;99.90
52471;DHT22;38382;53.160;7.026;2023-03-11T05:13:53;-3.90;99.90
52471;DHT22;38382;53.160;7.026;2023-03-11T05:16:31;-2.20;99.90
52471;DHT22;38382;53.160;7.026;2023-03-11T05:19:08;-1.90;99.90
52471;DHT22;38382;53.160;7.026;2023-03-11T05:21:56;-4.20;99.90
52471;DHT22;38382;53.160;7.026;2023-03-11T05:24:25;-2.00;99.90
52471;DHT22;38382;53.160;7.026;2023-03-11T05:26:51;-0.50;99.90
52471;DHT22;38382;53.160;7.026;2023-03-11T05:29:17;-1.20;99.90
52471;DHT22;38382;53.160;7.026;2023-03-11T05:31:43;-1.80;99.90
52471;DHT22;38382;53.160;7.026;2023-03-11T05:34:08;-2.30;99.90
52471;DHT22;38382;53.160;7.026;2023-03-11T05:36:36;-2.60;99.90
52471;DHT22;38382;53.160;7.026;2023-03-11T05:39:03;-0.40;99.90
52471;DHT22;38382;53.160;7.026;2023-03-11T05:41:29;-2.60;99.90
52471;DHT22;38382;53.160;7.026;2023-03-11T05:43:55;-0.20;99.90
52471;DHT22;38382;53.160;7.026;2023-03-11T05:48:47;-2.60;99.90
52471;DHT22;38382;53.160;7.026;2023-03-11T05:51:13;-3.80;99.90
52471;DHT22;38382;53.160;7.026;2023-03-11T05:53:44;-0.20;99.90
52471;DHT22;38382;53.160;7.026;2023-03-11T05:56:14;-0.30;99.90
52471;DHT22;38382;53.160;7.026;2023-03-11T05:58:40;-0.20;99.90
52471;DHT22;38382;53.160;7.026;2023-03-11T06:01:11;-2.70;99.90
52471;DHT22;38382;53.160;7.026;2023-03-11T06:03:38;-1.90;99.90
52471;DHT22;38382;53.160;7.026;2023-03-11T06:06:05;-1.80;99.90
52471;DHT22;38382;53.160;7.026;2023-03-11T06:08:32;-2.40;99.90
52471;DHT22;38382;53.160;7.026;2023-03-11T06:11:03;-0.50;99.90
52471;DHT22;38382;53.160;7.026;2023-03-11T06:13:29;-2.70;99.90
52471;DHT22;38382;53.160;7.026;2023-03-11T06:15:55;-2.40;99.90
52471;DHT22;38382;53.160;7.026;2023-03-11T06:21:41;-1.50;99.90
52471;DHT22;38382;53.160;7.026;2023-03-11T06:24:14;-2.50;99.90
52471;DHT22;38382;53.160;7.026;2023-03-11T06:26:51;-2.60;99.90
52471;DHT22;38382;53.160;7.026;2023-03-11T06:37:22;-3.10;99.90
52471;DHT22;38382;53.160;7.026;2023-03-11T06:44:36;-1.10;99.90
52471;DHT22;38382;53.160;7.026;2023-03-11T06:51:19;-2.60;99.90
52471;DHT22;38382;53.160;7.026;2023-03-11T06:53:52;-2.00;99.90
52471;DHT22;38382;53.160;7.026;2023-03-11T06:56:22;-0.40;99.90
52471;DHT22;38382;53.160;7.026;2023-03-11T06:58:49;-2.00;99.90
52471;DHT22;38382;53.160;7.026;2023-03-11T07:01:23;-0.30;99.90
52471;DHT22;38382;53.160;7.026;2023-03-11T07:03:50;0.20;99.90
52471;DHT22;38382;53.160;7.026;2023-03-11T07:06:18;0.60;99.90
52471;DHT22;38382;53.160;7.026;2023-03-11T07:08:49;-3.10;99.90
52471;DHT22;38382;53.160;7.026;2023-03-11T07:11:20;0.60;99.90
52471;DHT22;38382;53.160;7.026;2023-03-11T07:13:47;-1.50;99.90
52471;DHT22;38382;53.160;7.026;2023-03-11T07:16:15;-0.70;99.90
52471;DHT22;38382;53.160;7.026;2023-03-11T07:18:42;0.40;99.90
52471;DHT22;38382;53.160;7.026;2023-03-11T07:21:10;0.70;99.90
52471;DHT22;38382;53.160;7.026;2023-03-11T07:23:36;0.50;99.90
52471;DHT22;38382;53.160;7.026;2023-03-11T07:26:02;-0.90;99.90
52471;DHT22;38382;53.160;7.026;2023-03-11T07:28:29;-1.20;99.90
52471;DHT22;38382;53.160;7.026;2023-03-11T07:30:55;-0.40;99.90
52471;DHT22;38382;53.160;7.026;2023-03-11T07:33:22;0.70;99.90
52471;DHT22;38382;53.160;7.026;2023-03-11T07:35:51;-0.70;99.90
52471;DHT22;38382;53.160;7.026;2023-03-11T07:38:17;-0.90;99.90
52471;DHT22;38382;53.160;7.026;2023-03-11T07:40:44;0.20;99.90
52471;DHT22;38382;53.160;7.026;2023-03-11T07:43:10;-0.70;99.90
52471;DHT22;38382;53.160;7.026;2023-03-11T07:45:35;-0.50;99.90
52471;DHT22;38382;53.160;7.026;2023-03-11T07:48:01;-0.40;99.90
52471;DHT22;38382;53.160;7.026;2023-03-11T07:50:27;-0.30;99.90
52471;DHT22;38382;53.160;7.026;2023-03-11T07:52:53;1.30;99.90
52471;DHT22;38382;53.160;7.026;2023-03-11T07:55:19;-0.10;99.90
52471;DHT22;38382;53.160;7.026;2023-03-11T07:57:47;0.00;99.90
52471;DHT22;38382;53.160;7.026;2023-03-11T08:00:14;0.10;99.90
52471;DHT22;38382;53.160;7.026;2023-03-11T08:02:40;0.20;99.90
52471;DHT22;38382;53.160;7.026;2023-03-11T08:05:06;0.40;99.90
52471;DHT22;38382;53.160;7.026;2023-03-11T08:07:32;0.30;99.90
52471;DHT22;38382;53.160;7.026;2023-03-11T08:09:58;1.90;99.90
52471;DHT22;38382;53.160;7.026;2023-03-11T08:12:24;0.50;99.90
52471;DHT22;38382;53.160;7.026;2023-03-11T08:14:50;0.60;99.90
52471;DHT22;38382;53.160;7.026;2023-03-11T08:17:15;0.80;99.90
52471;DHT22;38382;53.160;7.026;2023-03-11T08:19:41;2.00;99.90
52471;DHT22;38382;53.160;7.026;2023-03-11T08:22:07;2.30;99.90
52471;DHT22;38382;53.160;7.026;2023-03-11T08:24:33;1.10;99.90
52471;DHT22;38382;53.160;7.026;2023-03-11T08:26:58;1.70;99.90
52471;DHT22;38382;53.160;7.026;2023-03-11T08:29:25;1.30;99.90
52471;DHT22;38382;53.160;7.026;2023-03-11T08:31:50;2.40;99.90
52471;DHT22;38382;53.160;7.026;2023-03-11T08:34:16;3.20;99.90
52471;DHT22;38382;53.160;7.026;2023-03-11T08:36:42;2.90;99.90
52471;DHT22;38382;53.160;7.026;2023-03-11T08:39:08;2.60;99.90
52471;DHT22;38382;53.160;7.026;2023-03-11T08:41:34;1.60;99.90
52471;DHT22;38382;53.160;7.026;2023-03-11T08:44:00;3.00;99.90
52471;DHT22;38382;53.160;7.026;2023-03-11T08:46:31;2.40;99.90
52471;DHT22;38382;53.160;7.026;2023-03-11T08:48:58;1.90;99.90
52471;DHT22;38382;53.160;7.026;2023-03-11T08:51:25;2.10;99.90
52471;DHT22;38382;53.160;7.026;2023-03-11T08:53:52;3.50;99.90
52471;DHT22;38382;53.160;7.026;2023-03-11T08:56:18;2.30;99.90
52471;DHT22;38382;53.160;7.026;2023-03-11T08:58:44;2.40;99.90
52471;DHT22;38382;53.160;7.026;2023-03-11T09:01:11;2.60;99.90
52471;DHT22;38382;53.160;7.026;2023-03-11T09:03:38;2.80;99.90
52471;DHT22;38382;53.160;7.026;2023-03-11T09:06:06;3.00;99.90
52471;DHT22;38382;53.160;7.026;2023-03-11T09:08:32;3.10;99.90
52471;DHT22;38382;53.160;7.026;2023-03-11T09:10:58;3.40;99.90
52471;DHT22;38382;53.160;7.026;2023-03-11T09:13:24;3.80;99.90
52471;DHT22;38382;53.160;7.026;2023-03-11T09:15:50;3.80;99.90
52471;DHT22;38382;53.160;7.026;2023-03-11T09:18:17;3.80;99.90
52471;DHT22;38382;53.160;7.026;2023-03-11T09:20:43;4.10;99.90
52471;DHT22;38382;53.160;7.026;2023-03-11T09:23:11;4.40;99.90
52471;DHT22;38382;53.160;7.026;2023-03-11T09:25:37;4.40;99.90
52471;DHT22;38382;53.160;7.026;2023-03-11T09:28:03;4.60;99.90
52471;DHT22;38382;53.160;7.026;2023-03-11T09:30:29;4.80;99.90
52471;DHT22;38382;53.160;7.026;2023-03-11T09:32:55;5.10;99.90
52471;DHT22;38382;53.160;7.026;2023-03-11T09:35:21;5.40;99.90
52471;DHT22;38382;53.160;7.026;2023-03-11T09:37:47;5.50;99.90
52471;DHT22;38382;53.160;7.026;2023-03-11T09:40:16;5.80;99.90
52471;DHT22;38382;53.160;7.026;2023-03-11T09:45:50;5.90;99.90
52471;DHT22;38382;53.160;7.026;2023-03-11T09:51:09;6.10;99.90
52471;DHT22;38382;53.160;7.026;2023-03-11T09:53:41;6.30;99.90
52471;DHT22;38382;53.160;7.026;2023-03-11T09:56:10;6.50;99.90
52471;DHT22;38382;53.160;7.026;2023-03-11T09:58:43;6.60;99.90
52471;DHT22;38382;53.160;7.026;2023-03-11T10:01:19;6.80;99.90
52471;DHT22;38382;53.160;7.026;2023-03-11T10:03:46;6.90;99.90
52471;DHT22;38382;53.160;7.026;2023-03-11T10:06:22;7.10;99.90
52471;DHT22;38382;53.160;7.026;2023-03-11T10:09:15;7.20;99.90
52471;DHT22;38382;53.160;7.026;2023-03-11T10:12:05;7.30;99.90
52471;DHT22;38382;53.160;7.026;2023-03-11T10:25:16;7.70;99.90
52471;DHT22;38382;53.160;7.026;2023-03-11T10:27:48;7.70;99.90
52471;DHT22;38382;53.160;7.026;2023-03-11T10:32:55;7.90;99.90
52471;DHT22;38382;53.160;7.026;2023-03-11T10:35:37;7.90;99.90
52471;DHT22;38382;53.160;7.026;2023-03-11T10:38:14;7.70;99.90
52471;DHT22;38382;53.160;7.026;2023-03-11T10:40:43;7.70;99.90
52471;DHT22;38382;53.160;7.026;2023-03-11T10:43:16;8.00;99.90
52471;DHT22;38382;53.160;7.026;2023-03-11T10:45:44;7.70;99.90
52471;DHT22;38382;53.160;7.026;2023-03-11T10:48:17;7.70;99.90
52471;DHT22;38382;53.160;7.026;2023-03-11T10:50:49;7.90;99.90
52471;DHT22;38382;53.160;7.026;2023-03-11T10:53:17;7.90;99.90
52471;DHT22;38382;53.160;7.026;2023-03-11T10:55:52;7.90;99.90
52471;DHT22;38382;53.160;7.026;2023-03-11T10:58:25;7.90;99.90
52471;DHT22;38382;53.160;7.026;2023-03-11T11:01:16;7.90;99.90
52471;DHT22;38382;53.160;7.026;2023-03-11T11:03:44;7.80;99.90
52471;DHT22;38382;53.160;7.026;2023-03-11T11:06:29;7.90;99.90
52471;DHT22;38382;53.160;7.026;2023-03-11T11:09:19;7.80;99.90
52471;DHT22;38382;53.160;7.026;2023-03-11T11:12:12;8.00;99.90
52471;DHT22;38382;53.160;7.026;2023-03-11T11:17:31;8.20;99.90
52471;DHT22;38382;53.160;7.026;2023-03-11T11:20:00;8.20;99.90
52471;DHT22;38382;53.160;7.026;2023-03-11T11:22:37;8.30;99.90
52471;DHT22;38382;53.160;7.026;2023-03-11T11:25:22;8.50;99.90
52471;DHT22;38382;53.160;7.026;2023-03-11T11:28:23;8.50;99.90
52471;DHT22;38382;53.160;7.026;2023-03-11T11:33:51;8.40;99.90
52471;DHT22;38382;53.160;7.026;2023-03-11T11:36:18;8.40;99.90
52471;DHT22;38382;53.160;7.026;2023-03-11T11:38:44;8.40;99.90
52471;DHT22;38382;53.160;7.026;2023-03-11T11:41:19;8.50;99.90
52471;DHT22;38382;53.160;7.026;2023-03-11T11:43:54;8.60;99.90
52471;DHT22;38382;53.160;7.026;2023-03-11T11:46:51;8.80;99.90
52471;DHT22;38382;53.160;7.026;2023-03-11T11:49:33;9.00;99.90
52471;DHT22;38382;53.160;7.026;2023-03-11T11:52:18;9.30;99.90
52471;DHT22;38382;53.160;7.026;2023-03-11T11:54:52;9.20;99.90
52471;DHT22;38382;53.160;7.026;2023-03-11T11:57:20;9.60;99.90
52471;DHT22;38382;53.160;7.026;2023-03-11T11:59:46;9.60;99.90
52471;DHT22;38382;53.160;7.026;2023-03-11T12:05:28;9.70;99.90
52471;DHT22;38382;53.160;7.026;2023-03-11T12:16:23;9.90;99.90
52471;DHT22;38382;53.160;7.026;2023-03-11T12:19:02;9.90;99.90
52471;DHT22;38382;53.160;7.026;2023-03-11T12:21:50;9.90;99.90
52471;DHT22;38382;53.160;7.026;2023-03-11T12:24:45;9.90;99.90
52471;DHT22;38382;53.160;7.026;2023-03-11T12:27:26;10.20;99.90
52471;DHT22;38382;53.160;7.026;2023-03-11T12:29:57;10.30;99.90
52471;DHT22;38382;53.160;7.026;2023-03-11T12:32:37;9.90;99.90
52471;DHT22;38382;53.160;7.026;2023-03-11T12:35:34;10.00;99.90
52471;DHT22;38382;53.160;7.026;2023-03-11T12:38:31;10.10;99.90
52471;DHT22;38382;53.160;7.026;2023-03-11T12:46:12;10.20;99.90
52471;DHT22;38382;53.160;7.026;2023-03-11T12:54:20;10.60;99.90
52471;DHT22;38382;53.160;7.026;2023-03-11T12:56:56;10.70;99.90
52471;DHT22;38382;53.160;7.026;2023-03-11T13:05:11;11.00;99.80
52471;DHT22;38382;53.160;7.026;2023-03-11T13:08:07;11.00;99.90
52471;DHT22;38382;53.160;7.026;2023-03-11T13:10:43;10.90;98.50
52471;DHT22;38382;53.160;7.026;2023-03-11T13:15:51;11.10;98.70
52471;DHT22;38382;53.160;7.026;2023-03-11T13:18:25;11.20;99.90
52471;DHT22;38382;53.160;7.026;2023-03-11T13:20:58;11.50;99.90
52471;DHT22;38382;53.160;7.026;2023-03-11T13:23:51;12.00;99.90
52471;DHT22;38382;53.160;7.026;2023-03-11T13:42:35;12.80;94.10
52471;DHT22;38382;53.160;7.026;2023-03-11T13:45:02;12.70;93.80
52471;DHT22;38382;53.160;7.026;2023-03-11T13:47:32;13.10;94.40
52471;DHT22;38382;53.160;7.026;2023-03-11T13:50:13;13.50;93.60
52471;DHT22;38382;53.160;7.026;2023-03-11T13:52:47;13.50;91.20
52471;DHT22;38382;53.160;7.026;2023-03-11T13:55:34;13.70;91.80
52471;DHT22;38382;53.160;7.026;2023-03-11T13:58:20;14.00;91.40
52471;DHT22;38382;53.160;7.026;2023-03-11T14:00:59;14.60;86.70
52471;DHT22;38382;53.160;7.026;2023-03-11T14:03:29;14.80;85.40
52471;DHT22;38382;53.160;7.026;2023-03-11T14:06:04;14.90;84.60
52471;DHT22;38382;53.160;7.026;2023-03-11T14:08:32;15.60;80.70
52471;DHT22;38382;53.160;7.026;2023-03-11T14:11:11;16.10;80.90
52471;DHT22;38382;53.160;7.026;2023-03-11T14:13:45;16.80;77.80
52471;DHT22;38382;53.160;7.026;2023-03-11T14:18:45;17.20;72.90
52471;DHT22;38382;53.160;7.026;2023-03-11T14:21:14;16.60;71.80
52471;DHT22;38382;53.160;7.026;2023-03-11T14:23:44;17.30;71.80
52471;DHT22;38382;53.160;7.026;2023-03-11T14:26:17;18.10;69.50
52471;DHT22;38382;53.160;7.026;2023-03-11T14:28:47;18.10;67.00
52471;DHT22;38382;53.160;7.026;2023-03-11T14:33:55;17.90;65.50
52471;DHT22;38382;53.160;7.026;2023-03-11T14:36:21;17.50;64.30
52471;DHT22;38382;53.160;7.026;2023-03-11T14:38:46;17.60;66.60
52471;DHT22;38382;53.160;7.026;2023-03-11T14:41:13;18.20;66.40
52471;DHT22;38382;53.160;7.026;2023-03-11T14:43:44;19.00;64.50
52471;DHT22;38382;53.160;7.026;2023-03-11T14:46:26;19.60;63.50
52471;DHT22;38382;53.160;7.026;2023-03-11T14:48:55;19.70;61.50
52471;DHT22;38382;53.160;7.026;2023-03-11T14:51:26;20.20;61.90
52471;DHT22;38382;53.160;7.026;2023-03-11T14:54:16;19.90;61.00
52471;DHT22;38382;53.160;7.026;2023-03-11T14:56:49;19.50;60.90
52471;DHT22;38382;53.160;7.026;2023-03-11T14:59:23;19.60;59.70
52471;DHT22;38382;53.160;7.026;2023-03-11T15:01:53;19.30;59.30
52471;DHT22;38382;53.160;7.026;2023-03-11T15:06:52;20.10;60.00
52471;DHT22;38382;53.160;7.026;2023-03-11T15:09:20;19.90;59.10
52471;DHT22;38382;53.160;7.026;2023-03-11T15:11:59;19.30;59.90
52471;DHT22;38382;53.160;7.026;2023-03-11T15:14:33;18.10;58.50
52471;DHT22;38382;53.160;7.026;2023-03-11T15:17:23;16.80;61.90
52471;DHT22;38382;53.160;7.026;2023-03-11T15:19:57;15.10;64.00
52471;DHT22;38382;53.160;7.026;2023-03-11T15:22:37;14.00;68.50
52471;DHT22;38382;53.160;7.026;2023-03-11T15:25:14;12.80;70.50
52471;DHT22;38382;53.160;7.026;2023-03-11T15:27:41;12.20;72.50
52471;DHT22;38382;53.160;7.026;2023-03-11T15:30:21;11.70;74.70
52471;DHT22;38382;53.160;7.026;2023-03-11T15:32:47;11.10;75.60
52471;DHT22;38382;53.160;7.026;2023-03-11T15:35:18;10.70;78.50
52471;DHT22;38382;53.160;7.026;2023-03-11T15:37:44;10.30;80.20
52471;DHT22;38382;53.160;7.026;2023-03-11T15:40:16;10.00;83.00
52471;DHT22;38382;53.160;7.026;2023-03-11T15:42:43;9.70;84.50
52471;DHT22;38382;53.160;7.026;2023-03-11T15:45:18;9.50;87.20
52471;DHT22;38382;53.160;7.026;2023-03-11T15:47:47;9.10;89.00
52471;DHT22;38382;53.160;7.026;2023-03-11T15:50:23;8.50;90.40
52471;DHT22;38382;53.160;7.026;2023-03-11T15:52:50;8.00;93.60
52471;DHT22;38382;53.160;7.026;2023-03-11T15:55:16;7.30;98.90
52471;DHT22;38382;53.160;7.026;2023-03-11T15:57:45;6.80;99.90
52471;DHT22;38382;53.160;7.026;2023-03-11T16:00:22;6.20;99.90
52471;DHT22;38382;53.160;7.026;2023-03-11T16:02:49;5.90;99.90
52471;DHT22;38382;53.160;7.026;2023-03-11T16:05:21;4.90;99.90
52471;DHT22;38382;53.160;7.026;2023-03-11T16:07:47;5.60;99.90
52471;DHT22;38382;53.160;7.026;2023-03-11T16:10:16;5.70;99.90
52471;DHT22;38382;53.160;7.026;2023-03-11T16:12:42;5.70;99.90
52471;DHT22;38382;53.160;7.026;2023-03-11T16:15:24;5.60;99.90
52471;DHT22;38382;53.160;7.026;2023-03-11T16:17:53;5.60;99.90
52471;DHT22;38382;53.160;7.026;2023-03-11T16:20:20;5.70;99.90
52471;DHT22;38382;53.160;7.026;2023-03-11T16:22:48;5.40;99.90
52471;DHT22;38382;53.160;7.026;2023-03-11T16:25:22;5.50;99.90
52471;DHT22;38382;53.160;7.026;2023-03-11T16:27:53;5.40;99.90
52471;DHT22;38382;53.160;7.026;2023-03-11T16:34:17;4.50;99.90
52471;DHT22;38382;53.160;7.026;2023-03-11T16:36:46;5.20;99.90
52471;DHT22;38382;53.160;7.026;2023-03-11T16:39:12;5.30;99.90
52471;DHT22;38382;53.160;7.026;2023-03-11T16:41:43;4.90;99.90
52471;DHT22;38382;53.160;7.026;2023-03-11T16:44:10;5.20;99.90
52471;DHT22;38382;53.160;7.026;2023-03-11T16:46:36;5.40;99.90
52471;DHT22;38382;53.160;7.026;2023-03-11T16:49:01;4.50;99.90
52471;DHT22;38382;53.160;7.026;2023-03-11T16:51:27;4.40;99.90
52471;DHT22;38382;53.160;7.026;2023-03-11T16:53:53;4.40;99.90
52471;DHT22;38382;53.160;7.026;2023-03-11T16:56:19;4.30;99.90
52471;DHT22;38382;53.160;7.026;2023-03-11T16:58:46;4.30;99.90
52471;DHT22;38382;53.160;7.026;2023-03-11T17:01:14;4.40;99.90
52471;DHT22;38382;53.160;7.026;2023-03-11T17:03:41;4.30;99.90
52471;DHT22;38382;53.160;7.026;2023-03-11T17:06:08;4.10;99.90
52471;DHT22;38382;53.160;7.026;2023-03-11T17:08:34;4.40;99.90
52471;DHT22;38382;53.160;7.026;2023-03-11T17:10:59;4.00;99.90
52471;DHT22;38382;53.160;7.026;2023-03-11T17:13:25;4.00;99.90
52471;DHT22;38382;53.160;7.026;2023-03-11T17:16:01;4.50;99.90
52471;DHT22;38382;53.160;7.026;2023-03-11T17:18:27;4.00;99.90
52471;DHT22;38382;53.160;7.026;2023-03-11T17:20:53;4.70;99.90
52471;DHT22;38382;53.160;7.026;2023-03-11T17:23:19;5.00;99.90
52471;DHT22;38382;53.160;7.026;2023-03-11T17:25:45;3.90;99.90
52471;DHT22;38382;53.160;7.026;2023-03-11T17:28:10;4.20;99.90
52471;DHT22;38382;53.160;7.026;2023-03-11T17:30:41;3.80;99.90
52471;DHT22;38382;53.160;7.026;2023-03-11T17:33:07;3.80;99.90
52471;DHT22;38382;53.160;7.026;2023-03-11T17:35:33;3.60;99.90
52471;DHT22;38382;53.160;7.026;2023-03-11T17:37:59;3.60;99.90
52471;DHT22;38382;53.160;7.026;2023-03-11T17:40:25;3.60;99.90
52471;DHT22;38382;53.160;7.026;2023-03-11T17:42:51;4.60;99.90
52471;DHT22;38382;53.160;7.026;2023-03-11T17:45:17;3.40;99.90
52471;DHT22;38382;53.160;7.026;2023-03-11T17:47:43;4.10;99.90
52471;DHT22;38382;53.160;7.026;2023-03-11T17:50:09;3.70;99.90
52471;DHT22;38382;53.160;7.026;2023-03-11T17:52:35;3.20;99.90
52471;DHT22;38382;53.160;7.026;2023-03-11T17:55:04;3.20;99.90
52471;DHT22;38382;53.160;7.026;2023-03-11T17:57:30;3.10;99.90
52471;DHT22;38382;53.160;7.026;2023-03-11T17:59:56;3.10;99.90
52471;DHT22;38382;53.160;7.026;2023-03-11T18:02:25;3.00;99.90
52471;DHT22;38382;53.160;7.026;2023-03-11T18:04:51;3.00;99.90
52471;DHT22;38382;53.160;7.026;2023-03-11T18:07:19;4.20;99.90
52471;DHT22;38382;53.160;7.026;2023-03-11T18:09:49;2.90;99.90
52471;DHT22;38382;53.160;7.026;2023-03-11T18:12:19;4.00;99.90
52471;DHT22;38382;53.160;7.026;2023-03-11T18:14:44;2.90;99.90
52471;DHT22;38382;53.160;7.026;2023-03-11T18:17:10;2.70;99.90
52471;DHT22;38382;53.160;7.026;2023-03-11T18:19:36;2.60;99.90
52471;DHT22;38382;53.160;7.026;2023-03-11T18:22:02;2.90;99.90
52471;DHT22;38382;53.160;7.026;2023-03-11T18:24:28;2.50;99.90
52471;DHT22;38382;53.160;7.026;2023-03-11T18:26:54;2.60;99.90
52471;DHT22;38382;53.160;7.026;2023-03-11T18:29:19;2.50;99.90
52471;DHT22;38382;53.160;7.026;2023-03-11T18:31:45;2.50;99.90
52471;DHT22;38382;53.160;7.026;2023-03-11T18:34:11;2.50;99.90
52471;DHT22;38382;53.160;7.026;2023-03-11T18:36:40;3.40;99.90
52471;DHT22;38382;53.160;7.026;2023-03-11T18:39:06;2.30;99.90
52471;DHT22;38382;53.160;7.026;2023-03-11T18:41:33;2.30;99.90
52471;DHT22;38382;53.160;7.026;2023-03-11T18:44:00;2.20;99.90
52471;DHT22;38382;53.160;7.026;2023-03-11T18:46:28;3.20;99.90
52471;DHT22;38382;53.160;7.026;2023-03-11T18:48:57;2.10;99.90
52471;DHT22;38382;53.160;7.026;2023-03-11T18:51:24;2.10;99.90
52471;DHT22;38382;53.160;7.026;2023-03-11T18:53:51;2.00;99.90
52471;DHT22;38382;53.160;7.026;2023-03-11T18:56:17;2.10;99.90
52471;DHT22;38382;53.160;7.026;2023-03-11T18:58:43;1.90;99.90